createdAt,value
2018-11-26T12:02:16.066Z,61.63
2018-11-26T12:04:42.992Z,60.86
2018-11-26T12:07:12.227Z,61.05
2018-11-26T12:09:40.908Z,60.93
2018-11-26T12:12:09.571Z,60.47
2018-11-26T12:14:38.205Z,60.86
2018-11-26T12:17:06.939Z,61.18
2018-11-26T12:19:35.740Z,60.49
2018-11-26T12:22:05.979Z,60.19
2018-11-26T12:24:34.623Z,61.12
2018-11-26T12:27:04.711Z,60.46
2018-11-26T12:29:33.711Z,60.35
2018-11-26T12:32:04.281Z,60.23
2018-11-26T12:34:33.269Z,59.99
2018-11-26T12:37:03.617Z,60.29
2018-11-26T12:39:32.250Z,60.49
2018-11-26T12:42:04.186Z,60.51
2018-11-26T12:44:40.607Z,60.29
2018-11-26T12:47:09.729Z,60.49
2018-11-26T12:49:40.238Z,60.22
2018-11-26T12:52:08.957Z,60.15
2018-11-26T12:54:37.654Z,60.40
2018-11-26T12:57:06.850Z,59.61
2018-11-26T12:59:35.584Z,60.42
2018-11-26T13:02:07.169Z,59.39
2018-11-26T13:04:36.097Z,59.17
2018-11-26T13:07:06.870Z,59.65
2018-11-26T13:09:35.619Z,59.63
2018-11-26T13:12:05.414Z,59.98
2018-11-26T13:14:34.137Z,60.47
2018-11-26T13:17:05.762Z,60.52
2018-11-26T13:19:34.386Z,60.56
2018-11-26T13:22:07.533Z,61.29
2018-11-26T13:24:36.490Z,60.81
2018-11-26T13:27:06.109Z,60.64
2018-11-26T13:29:34.770Z,60.57
2018-11-26T13:32:06.269Z,61.38
2018-11-26T13:34:35.061Z,60.48
2018-11-26T13:37:08.163Z,60.38
2018-11-26T13:39:36.826Z,61.11
2018-11-26T13:42:06.810Z,60.52
2018-11-26T13:44:35.431Z,60.42
2018-11-26T13:47:05.862Z,60.12
2018-11-26T13:49:34.459Z,60.38
2018-11-26T13:52:04.509Z,60.11
2018-11-26T13:54:34.501Z,60.44
2018-11-26T13:57:04.583Z,60.72
2018-11-26T13:59:33.295Z,60.71
2018-11-26T14:02:03.149Z,60.46
2018-11-26T14:04:31.780Z,60.57
2018-11-26T14:07:00.371Z,60.75
2018-11-26T14:09:29.020Z,62.00
2018-11-26T14:11:57.644Z,61.13
2018-11-26T14:14:26.266Z,61.44
2018-11-26T14:16:54.965Z,60.91
2018-11-26T14:19:23.585Z,60.14
2018-11-26T14:21:52.214Z,60.58
2018-11-26T14:24:20.930Z,60.51
2018-11-26T14:26:50.966Z,60.69
2018-11-26T14:29:19.631Z,60.72
2018-11-26T14:31:48.259Z,60.74
2018-11-26T14:34:16.916Z,61.12
2018-11-26T14:36:45.575Z,61.09
2018-11-26T14:39:14.218Z,61.27
2018-11-26T14:41:42.867Z,61.66
2018-11-26T14:44:12.583Z,61.44
2018-11-26T14:46:41.338Z,61.22
2018-11-26T14:49:09.983Z,61.81
2018-11-26T14:51:38.567Z,62.32
2018-11-26T14:54:07.252Z,62.06
2018-11-26T14:56:35.900Z,61.52
2018-11-26T14:59:06.197Z,61.72
2018-11-26T15:01:34.897Z,62.17
2018-11-26T15:04:04.751Z,62.07
2018-11-26T15:06:33.403Z,62.08
2018-11-26T15:09:02.861Z,62.51
2018-11-26T15:11:31.407Z,63.06
2018-11-26T15:14:02.821Z,62.51
2018-11-26T15:16:31.479Z,62.73
2018-11-26T15:19:00.122Z,63.01
2018-11-26T15:21:28.797Z,63.02
2018-11-26T15:23:57.889Z,63.00
2018-11-26T15:26:27.678Z,63.45
2018-11-26T15:28:55.205Z,63.48
2018-11-26T15:31:23.819Z,64.28
2018-11-26T15:33:52.784Z,64.11
2018-11-26T15:36:21.419Z,64.28
2018-11-26T15:38:50.026Z,64.82
2018-11-26T15:41:18.835Z,64.75
2018-11-26T15:43:47.482Z,65.01
2018-11-26T15:46:16.224Z,64.85
2018-11-26T15:48:44.949Z,64.33
2018-11-26T15:51:13.734Z,64.96
2018-11-26T15:53:42.375Z,64.69
2018-11-26T15:56:11.011Z,65.37
2018-11-26T15:58:39.661Z,65.12
2018-11-26T16:01:08.444Z,64.84
2018-11-26T16:03:37.706Z,64.94
2018-11-26T16:06:06.587Z,64.76
2018-11-26T16:08:35.249Z,65.41
2018-11-26T16:11:04.515Z,65.44
2018-11-26T16:13:33.262Z,65.78
2018-11-26T16:16:03.538Z,66.43
2018-11-26T16:18:32.569Z,66.17
2018-11-26T16:21:02.481Z,66.52
2018-11-26T16:23:31.167Z,66.74
2018-11-26T16:25:59.930Z,66.96
2018-11-26T16:28:28.571Z,67.37
2018-11-26T16:30:57.243Z,67.35
2018-11-26T16:33:25.913Z,67.63
2018-11-26T16:35:54.543Z,67.45
2018-11-26T16:38:23.210Z,67.62
2018-11-26T16:40:52.621Z,67.97
2018-11-26T16:43:22.545Z,68.25
2018-11-26T16:45:51.611Z,68.30
2018-11-26T16:48:20.238Z,68.35
2018-11-26T16:50:49.260Z,68.38
2018-11-26T16:53:19.441Z,68.44
2018-11-26T16:55:46.562Z,68.62
2018-11-26T16:58:15.255Z,68.82
2018-11-26T17:00:44.053Z,68.98
2018-11-26T17:03:12.761Z,69.06
2018-11-26T17:05:42.578Z,68.78
2018-11-26T17:08:12.763Z,68.89
2018-11-26T17:10:42.816Z,68.85
2018-11-26T17:13:13.221Z,69.09
2018-11-26T17:15:41.904Z,69.36
2018-11-26T17:18:10.592Z,69.33
2018-11-26T17:20:39.326Z,69.21
2018-11-26T17:23:08.425Z,69.58
2018-11-26T17:25:37.165Z,69.67
2018-11-26T17:28:07.530Z,69.92
2018-11-26T17:30:37.101Z,69.95
2018-11-26T17:33:07.126Z,70.07
2018-11-26T17:35:35.783Z,70.23
2018-11-26T17:38:05.644Z,70.07
2018-11-26T17:40:34.350Z,70.08
2018-11-26T17:43:05.816Z,70.05
2018-11-26T17:45:34.568Z,70.25
2018-11-26T17:48:05.627Z,70.39
2018-11-26T17:50:38.596Z,70.77
2018-11-26T17:53:09.772Z,70.65
2018-11-26T17:55:57.013Z,70.64
2018-11-26T17:58:27.099Z,70.57
2018-11-26T18:01:04.133Z,70.16
2018-11-26T18:03:32.849Z,70.18
2018-11-26T18:06:02.856Z,69.98
2018-11-26T18:08:31.584Z,70.01
2018-11-26T18:11:00.219Z,69.67
2018-11-26T18:13:28.851Z,69.77
2018-11-26T18:15:57.828Z,69.29
2018-11-26T18:18:26.461Z,68.85
2018-11-26T18:20:55.101Z,69.12
2018-11-26T18:23:23.827Z,69.05
2018-11-26T18:25:52.447Z,69.03
2018-11-26T18:28:21.251Z,69.23
2018-11-26T18:30:51.348Z,69.12
2018-11-26T18:33:19.978Z,69.06
2018-11-26T18:35:49.214Z,68.77
2018-11-26T18:38:18.177Z,68.77
2018-11-26T18:40:50.555Z,68.83
2018-11-26T18:43:19.545Z,68.34
2018-11-26T18:45:48.235Z,68.37
2018-11-26T18:48:16.939Z,68.23
2018-11-26T18:50:45.637Z,68.00
2018-11-26T18:53:14.294Z,68.10
2018-11-26T18:55:43.396Z,68.19
2018-11-26T18:58:12.575Z,67.74
2018-11-26T19:00:45.038Z,67.67
2018-11-26T19:03:18.329Z,68.02
2018-11-26T19:05:47.758Z,68.17
2018-11-26T19:08:16.422Z,67.94
2018-11-26T19:10:45.402Z,67.79
2018-11-26T19:13:16.703Z,67.85
2018-11-26T19:15:47.104Z,67.92
2018-11-26T19:18:23.022Z,67.95
2018-11-26T19:20:52.074Z,67.80
2018-11-26T19:23:20.932Z,67.50
2018-11-26T19:25:50.947Z,67.74
2018-11-26T19:28:20.507Z,67.80
2018-11-26T19:30:48.598Z,68.07
2018-11-26T19:33:19.400Z,67.96
2018-11-26T19:35:48.752Z,67.83
2018-11-26T19:38:17.470Z,67.92
2018-11-26T19:40:46.308Z,67.98
2018-11-26T19:43:15.349Z,68.04
2018-11-26T19:45:44.145Z,68.05
2018-11-26T19:48:12.972Z,67.57
2018-11-26T19:50:41.779Z,67.90
2018-11-26T19:53:12.123Z,67.85
2018-11-26T19:55:41.959Z,67.83
2018-11-26T19:58:11.086Z,68.30
2018-11-26T20:00:40.599Z,68.20
2018-11-26T20:03:44.565Z,68.37
2018-11-26T20:06:17.263Z,68.37
2018-11-26T20:08:48.578Z,68.17
2018-11-26T20:11:17.498Z,68.18
2018-11-26T20:13:46.243Z,68.18
2018-11-26T20:16:17.063Z,68.56
2018-11-26T20:18:48.760Z,68.42
2018-11-26T20:21:17.464Z,68.61
2018-11-26T20:23:46.161Z,68.43
2018-11-26T20:26:14.833Z,68.94
2018-11-26T20:28:43.545Z,68.78
2018-11-26T20:31:12.416Z,68.63
2018-11-26T20:33:41.153Z,69.12
2018-11-26T20:36:12.040Z,69.08
2018-11-26T20:38:41.000Z,69.14
2018-11-26T20:41:12.437Z,69.17
2018-11-26T20:43:41.937Z,69.13
2018-11-26T20:46:10.816Z,69.26
2018-11-26T20:48:40.171Z,69.23
2018-11-26T20:51:09.131Z,69.42
2018-11-26T20:53:37.868Z,69.71
2018-11-26T20:56:13.719Z,69.21
2018-11-26T20:58:42.556Z,68.93
2018-11-26T21:01:11.214Z,69.00
2018-11-26T21:03:40.260Z,69.02
2018-11-26T21:06:09.159Z,69.39
2018-11-26T21:08:38.116Z,69.09
2018-11-26T21:11:07.412Z,69.17
2018-11-26T21:13:37.401Z,69.50
2018-11-26T21:16:06.777Z,69.30
2018-11-26T21:18:35.813Z,68.98
2018-11-26T21:21:07.235Z,69.05
2018-11-26T21:23:36.278Z,68.73
2018-11-26T21:26:07.822Z,68.85
2018-11-26T21:28:36.645Z,68.52
2018-11-26T21:31:06.201Z,68.52
2018-11-26T21:33:35.278Z,68.39
2018-11-26T21:36:05.853Z,67.62
2018-11-26T21:38:36.990Z,68.09
2018-11-26T21:41:06.593Z,67.82
2018-11-26T21:43:35.592Z,67.84
2018-11-26T21:46:06.271Z,67.96
2018-11-26T21:48:35.094Z,68.71
2018-11-26T21:51:06.502Z,68.73
2018-11-26T21:53:35.351Z,68.83
2018-11-26T21:56:05.693Z,68.87
2018-11-26T21:58:34.539Z,68.62
2018-11-26T22:01:06.772Z,69.20
2018-11-26T22:03:35.739Z,68.83
2018-11-26T22:06:05.756Z,68.59
2018-11-26T22:08:34.645Z,68.83
2018-11-26T22:11:04.830Z,68.72
2018-11-26T22:13:33.677Z,68.62
2018-11-26T22:16:04.432Z,68.58
2018-11-26T22:18:34.362Z,68.64
2018-11-26T22:21:06.984Z,68.68
2018-11-26T22:23:35.931Z,68.94
2018-11-26T22:26:05.647Z,69.39
2018-11-26T22:28:34.437Z,69.15
2018-11-26T22:31:05.358Z,68.83
2018-11-26T22:33:34.180Z,69.03
2018-11-26T22:36:05.185Z,68.52
2018-11-26T22:38:33.985Z,67.48
2018-11-26T22:41:04.021Z,67.85
2018-11-26T22:43:32.677Z,67.76
2018-11-26T22:46:03.925Z,67.78
2018-11-26T22:48:32.523Z,67.71
2018-11-26T22:51:02.938Z,67.51
2018-11-26T22:53:31.776Z,67.32
2018-11-26T22:56:00.447Z,66.96
2018-11-26T22:58:29.126Z,67.64
2018-11-26T23:00:57.806Z,67.69
2018-11-26T23:03:27.342Z,67.32
2018-11-26T23:05:55.983Z,67.92
2018-11-26T23:08:24.680Z,68.03
2018-11-26T23:10:53.383Z,68.16
2018-11-26T23:13:22.017Z,67.57
2018-11-26T23:15:50.981Z,67.63
2018-11-26T23:18:19.615Z,67.46
2018-11-26T23:20:48.243Z,67.21
2018-11-26T23:23:16.928Z,67.20
2018-11-26T23:25:45.567Z,67.52
2018-11-26T23:28:14.272Z,67.67
2018-11-26T23:30:42.929Z,67.47
2018-11-26T23:33:11.569Z,67.58
2018-11-26T23:35:40.778Z,66.79
2018-11-26T23:38:09.393Z,67.30
2018-11-26T23:40:42.604Z,67.71
2018-11-26T23:43:11.279Z,67.46
2018-11-26T23:45:39.953Z,67.30
2018-11-26T23:48:08.613Z,67.70
2018-11-26T23:50:37.318Z,67.83
2018-11-26T23:53:06.987Z,67.54
2018-11-26T23:55:35.658Z,67.67
2018-11-26T23:58:05.882Z,67.08
